sensor_id;sensor_type;location;lat;lon;timestamp;P1;durP1;ratioP1;P2;durP2;ratioP2
20287;SDS011;10303;51.960;8.372;2023-08-01T00:00:07;0.43;;;0.43;;
20287;SDS011;10303;51.960;8.372;2023-08-01T00:02:39;0.73;;;0.40;;
20287;SDS011;10303;51.960;8.372;2023-08-01T00:05:08;1.70;;;0.40;;
20287;SDS011;10303;51.960;8.372;2023-08-01T00:07:34;0.50;;;0.50;;
20287;SDS011;10303;51.960;8.372;2023-08-01T00:10:00;0.97;;;0.50;;
20287;SDS011;10303;51.960;8.372;2023-08-01T00:12:26;0.50;;;0.50;;
20287;SDS011;10303;51.960;8.372;2023-08-01T00:14:53;1.20;;;0.70;;
20287;SDS011;10303;51.960;8.372;2023-08-01T00:17:18;0.70;;;0.67;;
20287;SDS011;10303;51.960;8.372;2023-08-01T00:19:45;0.40;;;0.40;;
20287;SDS011;10303;51.960;8.372;2023-08-01T00:22:11;0.50;;;0.50;;
20287;SDS011;10303;51.960;8.372;2023-08-01T00:24:37;0.53;;;0.50;;
20287;SDS011;10303;51.960;8.372;2023-08-01T00:27:03;0.50;;;0.50;;
20287;SDS011;10303;51.960;8.372;2023-08-01T00:29:29;0.50;;;0.50;;
20287;SDS011;10303;51.960;8.372;2023-08-01T00:31:55;0.40;;;0.40;;
20287;SDS011;10303;51.960;8.372;2023-08-01T00:34:21;1.07;;;0.80;;
20287;SDS011;10303;51.960;8.372;2023-08-01T00:36:47;0.33;;;0.33;;
20287;SDS011;10303;51.960;8.372;2023-08-01T00:39:14;0.40;;;0.40;;
20287;SDS011;10303;51.960;8.372;2023-08-01T00:41:40;0.60;;;0.57;;
20287;SDS011;10303;51.960;8.372;2023-08-01T00:44:06;0.30;;;0.30;;
20287;SDS011;10303;51.960;8.372;2023-08-01T00:46:32;0.50;;;0.43;;
20287;SDS011;10303;51.960;8.372;2023-08-01T00:48:58;0.30;;;0.30;;
20287;SDS011;10303;51.960;8.372;2023-08-01T00:51:26;0.40;;;0.40;;
20287;SDS011;10303;51.960;8.372;2023-08-01T00:53:54;0.40;;;0.40;;
20287;SDS011;10303;51.960;8.372;2023-08-01T00:56:21;0.43;;;0.43;;
20287;SDS011;10303;51.960;8.372;2023-08-01T00:58:47;0.40;;;0.40;;
20287;SDS011;10303;51.960;8.372;2023-08-01T01:01:13;1.23;;;0.30;;
20287;SDS011;10303;51.960;8.372;2023-08-01T01:03:39;0.40;;;0.40;;
20287;SDS011;10303;51.960;8.372;2023-08-01T01:06:24;0.33;;;0.33;;
20287;SDS011;10303;51.960;8.372;2023-08-01T01:08:58;0.50;;;0.50;;
20287;SDS011;10303;51.960;8.372;2023-08-01T01:11:24;0.47;;;0.30;;
20287;SDS011;10303;51.960;8.372;2023-08-01T01:13:50;1.23;;;0.40;;
20287;SDS011;10303;51.960;8.372;2023-08-01T01:16:19;2.47;;;0.40;;
20287;SDS011;10303;51.960;8.372;2023-08-01T01:18:45;0.50;;;0.50;;
20287;SDS011;10303;51.960;8.372;2023-08-01T01:21:11;0.60;;;0.60;;
20287;SDS011;10303;51.960;8.372;2023-08-01T01:23:37;0.60;;;0.40;;
20287;SDS011;10303;51.960;8.372;2023-08-01T01:26:05;0.60;;;0.60;;
20287;SDS011;10303;51.960;8.372;2023-08-01T01:28:33;0.57;;;0.57;;
20287;SDS011;10303;51.960;8.372;2023-08-01T01:31:01;8.13;;;0.70;;
20287;SDS011;10303;51.960;8.372;2023-08-01T01:33:28;1.37;;;0.60;;
20287;SDS011;10303;51.960;8.372;2023-08-01T01:35:54;0.23;;;0.20;;
20287;SDS011;10303;51.960;8.372;2023-08-01T01:38:20;0.97;;;0.40;;
20287;SDS011;10303;51.960;8.372;2023-08-01T01:40:46;0.47;;;0.40;;
20287;SDS011;10303;51.960;8.372;2023-08-01T01:43:12;0.33;;;0.30;;
20287;SDS011;10303;51.960;8.372;2023-08-01T01:45:38;0.33;;;0.33;;
20287;SDS011;10303;51.960;8.372;2023-08-01T01:48:04;0.50;;;0.40;;
20287;SDS011;10303;51.960;8.372;2023-08-01T01:50:30;0.80;;;0.50;;
20287;SDS011;10303;51.960;8.372;2023-08-01T01:52:56;0.63;;;0.50;;
20287;SDS011;10303;51.960;8.372;2023-08-01T01:55:22;0.47;;;0.40;;
20287;SDS011;10303;51.960;8.372;2023-08-01T01:57:48;3.83;;;0.50;;
20287;SDS011;10303;51.960;8.372;2023-08-01T02:00:14;0.50;;;0.50;;
20287;SDS011;10303;51.960;8.372;2023-08-01T02:02:40;0.40;;;0.40;;
20287;SDS011;10303;51.960;8.372;2023-08-01T02:05:06;1.23;;;0.70;;
20287;SDS011;10303;51.960;8.372;2023-08-01T02:07:32;0.60;;;0.60;;
20287;SDS011;10303;51.960;8.372;2023-08-01T02:09:59;0.40;;;0.40;;
20287;SDS011;10303;51.960;8.372;2023-08-01T02:12:29;0.40;;;0.40;;
20287;SDS011;10303;51.960;8.372;2023-08-01T02:14:57;0.40;;;0.40;;
20287;SDS011;10303;51.960;8.372;2023-08-01T02:17:23;0.40;;;0.40;;
20287;SDS011;10303;51.960;8.372;2023-08-01T02:19:50;0.40;;;0.40;;
20287;SDS011;10303;51.960;8.372;2023-08-01T02:22:16;0.40;;;0.40;;
20287;SDS011;10303;51.960;8.372;2023-08-01T02:24:42;0.40;;;0.40;;
20287;SDS011;10303;51.960;8.372;2023-08-01T02:27:08;0.40;;;0.40;;
20287;SDS011;10303;51.960;8.372;2023-08-01T02:29:34;0.70;;;0.67;;
20287;SDS011;10303;51.960;8.372;2023-08-01T02:32:00;0.47;;;0.47;;
20287;SDS011;10303;51.960;8.372;2023-08-01T02:34:27;0.50;;;0.50;;
20287;SDS011;10303;51.960;8.372;2023-08-01T02:36:53;0.73;;;0.50;;
20287;SDS011;10303;51.960;8.372;2023-08-01T02:39:19;0.40;;;0.40;;
20287;SDS011;10303;51.960;8.372;2023-08-01T02:41:45;0.50;;;0.50;;
20287;SDS011;10303;51.960;8.372;2023-08-01T02:44:11;1.27;;;0.63;;
20287;SDS011;10303;51.960;8.372;2023-08-01T02:46:38;0.60;;;0.60;;
20287;SDS011;10303;51.960;8.372;2023-08-01T02:49:04;0.80;;;0.70;;
20287;SDS011;10303;51.960;8.372;2023-08-01T02:51:30;0.40;;;0.40;;
20287;SDS011;10303;51.960;8.372;2023-08-01T02:53:56;0.50;;;0.50;;
20287;SDS011;10303;51.960;8.372;2023-08-01T02:56:22;0.70;;;0.67;;
20287;SDS011;10303;51.960;8.372;2023-08-01T02:58:48;0.80;;;0.80;;
20287;SDS011;10303;51.960;8.372;2023-08-01T03:01:13;0.60;;;0.53;;
20287;SDS011;10303;51.960;8.372;2023-08-01T03:03:39;0.70;;;0.60;;
20287;SDS011;10303;51.960;8.372;2023-08-01T03:06:07;0.67;;;0.67;;
20287;SDS011;10303;51.960;8.372;2023-08-01T03:08:33;0.40;;;0.40;;
20287;SDS011;10303;51.960;8.372;2023-08-01T03:10:59;0.90;;;0.70;;
20287;SDS011;10303;51.960;8.372;2023-08-01T03:13:25;0.70;;;0.70;;
20287;SDS011;10303;51.960;8.372;2023-08-01T03:15:52;0.83;;;0.70;;
20287;SDS011;10303;51.960;8.372;2023-08-01T03:18:18;0.80;;;0.80;;
20287;SDS011;10303;51.960;8.372;2023-08-01T03:20:43;0.73;;;0.73;;
20287;SDS011;10303;51.960;8.372;2023-08-01T03:23:09;0.63;;;0.63;;
20287;SDS011;10303;51.960;8.372;2023-08-01T03:25:36;0.70;;;0.70;;
20287;SDS011;10303;51.960;8.372;2023-08-01T03:28:03;0.60;;;0.60;;
20287;SDS011;10303;51.960;8.372;2023-08-01T03:30:31;0.70;;;0.60;;
20287;SDS011;10303;51.960;8.372;2023-08-01T03:32:58;0.40;;;0.40;;
20287;SDS011;10303;51.960;8.372;2023-08-01T03:35:25;1.37;;;0.60;;
20287;SDS011;10303;51.960;8.372;2023-08-01T03:37:51;0.50;;;0.50;;
20287;SDS011;10303;51.960;8.372;2023-08-01T03:40:17;2.43;;;0.67;;
20287;SDS011;10303;51.960;8.372;2023-08-01T03:42:45;0.53;;;0.53;;
20287;SDS011;10303;51.960;8.372;2023-08-01T03:45:11;0.70;;;0.50;;
20287;SDS011;10303;51.960;8.372;2023-08-01T03:47:37;0.50;;;0.50;;
20287;SDS011;10303;51.960;8.372;2023-08-01T03:50:03;0.60;;;0.60;;
20287;SDS011;10303;51.960;8.372;2023-08-01T03:52:29;0.93;;;0.50;;
20287;SDS011;10303;51.960;8.372;2023-08-01T03:54:55;2.80;;;0.87;;
20287;SDS011;10303;51.960;8.372;2023-08-01T03:57:21;0.50;;;0.50;;
20287;SDS011;10303;51.960;8.372;2023-08-01T03:59:47;0.50;;;0.50;;
20287;SDS011;10303;51.960;8.372;2023-08-01T04:02:14;0.60;;;0.60;;
20287;SDS011;10303;51.960;8.372;2023-08-01T04:04:40;1.57;;;0.80;;
20287;SDS011;10303;51.960;8.372;2023-08-01T04:07:05;0.67;;;0.67;;
20287;SDS011;10303;51.960;8.372;2023-08-01T04:09:31;0.63;;;0.50;;
20287;SDS011;10303;51.960;8.372;2023-08-01T04:11:57;0.80;;;0.80;;
20287;SDS011;10303;51.960;8.372;2023-08-01T04:14:23;2.40;;;0.77;;
20287;SDS011;10303;51.960;8.372;2023-08-01T04:16:49;0.80;;;0.77;;
20287;SDS011;10303;51.960;8.372;2023-08-01T04:19:15;1.10;;;1.00;;
20287;SDS011;10303;51.960;8.372;2023-08-01T04:21:41;1.60;;;0.73;;
20287;SDS011;10303;51.960;8.372;2023-08-01T04:24:07;3.27;;;1.30;;
20287;SDS011;10303;51.960;8.372;2023-08-01T04:26:33;1.80;;;0.93;;
20287;SDS011;10303;51.960;8.372;2023-08-01T04:29:01;3.07;;;0.97;;
20287;SDS011;10303;51.960;8.372;2023-08-01T04:31:27;1.30;;;0.73;;
20287;SDS011;10303;51.960;8.372;2023-08-01T04:33:53;0.90;;;0.90;;
20287;SDS011;10303;51.960;8.372;2023-08-01T04:36:19;1.07;;;0.97;;
20287;SDS011;10303;51.960;8.372;2023-08-01T04:38:45;1.03;;;1.03;;
20287;SDS011;10303;51.960;8.372;2023-08-01T04:41:11;3.17;;;1.30;;
20287;SDS011;10303;51.960;8.372;2023-08-01T04:43:37;1.17;;;1.07;;
20287;SDS011;10303;51.960;8.372;2023-08-01T04:46:04;2.27;;;1.50;;
20287;SDS011;10303;51.960;8.372;2023-08-01T04:48:30;1.10;;;1.00;;
20287;SDS011;10303;51.960;8.372;2023-08-01T04:50:56;1.47;;;1.37;;
20287;SDS011;10303;51.960;8.372;2023-08-01T04:53:22;1.60;;;1.50;;
20287;SDS011;10303;51.960;8.372;2023-08-01T04:55:48;1.70;;;1.30;;
20287;SDS011;10303;51.960;8.372;2023-08-01T04:58:14;1.60;;;1.30;;
20287;SDS011;10303;51.960;8.372;2023-08-01T05:00:41;2.07;;;1.37;;
20287;SDS011;10303;51.960;8.372;2023-08-01T05:03:08;3.23;;;1.33;;
20287;SDS011;10303;51.960;8.372;2023-08-01T05:05:34;3.93;;;1.63;;
20287;SDS011;10303;51.960;8.372;2023-08-01T05:08:00;1.80;;;1.70;;
20287;SDS011;10303;51.960;8.372;2023-08-01T05:10:25;1.60;;;1.50;;
20287;SDS011;10303;51.960;8.372;2023-08-01T05:12:51;1.73;;;1.53;;
20287;SDS011;10303;51.960;8.372;2023-08-01T05:15:17;4.53;;;2.20;;
20287;SDS011;10303;51.960;8.372;2023-08-01T05:17:43;2.03;;;1.73;;
20287;SDS011;10303;51.960;8.372;2023-08-01T05:20:10;1.73;;;1.47;;
20287;SDS011;10303;51.960;8.372;2023-08-01T05:22:36;2.23;;;2.03;;
20287;SDS011;10303;51.960;8.372;2023-08-01T05:25:02;3.60;;;2.17;;
20287;SDS011;10303;51.960;8.372;2023-08-01T05:27:30;5.30;;;2.20;;
20287;SDS011;10303;51.960;8.372;2023-08-01T05:29:56;2.07;;;1.67;;
20287;SDS011;10303;51.960;8.372;2023-08-01T05:32:22;2.43;;;1.97;;
20287;SDS011;10303;51.960;8.372;2023-08-01T05:34:48;3.67;;;2.20;;
20287;SDS011;10303;51.960;8.372;2023-08-01T05:37:14;3.40;;;2.00;;
20287;SDS011;10303;51.960;8.372;2023-08-01T05:39:40;2.13;;;1.97;;
20287;SDS011;10303;51.960;8.372;2023-08-01T05:42:06;4.93;;;2.30;;
20287;SDS011;10303;51.960;8.372;2023-08-01T05:44:35;2.37;;;2.17;;
20287;SDS011;10303;51.960;8.372;2023-08-01T05:47:01;2.73;;;2.10;;
20287;SDS011;10303;51.960;8.372;2023-08-01T05:49:27;2.97;;;1.63;;
20287;SDS011;10303;51.960;8.372;2023-08-01T05:51:54;2.53;;;2.20;;
20287;SDS011;10303;51.960;8.372;2023-08-01T05:54:20;2.27;;;2.07;;
20287;SDS011;10303;51.960;8.372;2023-08-01T05:56:46;2.20;;;2.00;;
20287;SDS011;10303;51.960;8.372;2023-08-01T05:59:12;6.13;;;2.53;;
20287;SDS011;10303;51.960;8.372;2023-08-01T06:01:38;3.87;;;2.20;;
20287;SDS011;10303;51.960;8.372;2023-08-01T06:04:04;5.90;;;2.80;;
20287;SDS011;10303;51.960;8.372;2023-08-01T06:06:30;6.93;;;2.97;;
20287;SDS011;10303;51.960;8.372;2023-08-01T06:08:56;3.57;;;2.60;;
20287;SDS011;10303;51.960;8.372;2023-08-01T06:11:22;4.37;;;2.23;;
20287;SDS011;10303;51.960;8.372;2023-08-01T06:13:48;3.10;;;2.30;;
20287;SDS011;10303;51.960;8.372;2023-08-01T06:16:14;3.23;;;1.80;;
20287;SDS011;10303;51.960;8.372;2023-08-01T06:18:40;5.33;;;3.10;;
20287;SDS011;10303;51.960;8.372;2023-08-01T06:21:06;2.43;;;2.27;;
20287;SDS011;10303;51.960;8.372;2023-08-01T06:23:32;2.83;;;2.63;;
20287;SDS011;10303;51.960;8.372;2023-08-01T06:25:58;6.73;;;2.93;;
20287;SDS011;10303;51.960;8.372;2023-08-01T06:28:24;4.87;;;2.77;;
20287;SDS011;10303;51.960;8.372;2023-08-01T06:30:50;3.23;;;2.83;;
20287;SDS011;10303;51.960;8.372;2023-08-01T06:33:16;5.00;;;3.10;;
20287;SDS011;10303;51.960;8.372;2023-08-01T06:35:42;2.83;;;2.40;;
20287;SDS011;10303;51.960;8.372;2023-08-01T06:38:08;8.80;;;3.67;;
20287;SDS011;10303;51.960;8.372;2023-08-01T06:40:34;4.80;;;2.80;;
20287;SDS011;10303;51.960;8.372;2023-08-01T06:43:00;3.60;;;2.63;;
20287;SDS011;10303;51.960;8.372;2023-08-01T06:45:26;4.63;;;3.63;;
20287;SDS011;10303;51.960;8.372;2023-08-01T06:47:52;2.87;;;2.10;;
20287;SDS011;10303;51.960;8.372;2023-08-01T06:50:18;3.73;;;3.03;;
20287;SDS011;10303;51.960;8.372;2023-08-01T06:52:45;6.03;;;3.90;;
20287;SDS011;10303;51.960;8.372;2023-08-01T06:55:11;4.67;;;3.23;;
20287;SDS011;10303;51.960;8.372;2023-08-01T06:57:37;4.18;;;3.35;;
20287;SDS011;10303;51.960;8.372;2023-08-01T07:00:03;4.37;;;3.33;;
20287;SDS011;10303;51.960;8.372;2023-08-01T07:02:29;3.53;;;2.80;;
20287;SDS011;10303;51.960;8.372;2023-08-01T07:04:55;5.15;;;2.92;;
20287;SDS011;10303;51.960;8.372;2023-08-01T07:07:21;5.50;;;4.10;;
20287;SDS011;10303;51.960;8.372;2023-08-01T07:09:47;5.47;;;3.53;;
20287;SDS011;10303;51.960;8.372;2023-08-01T07:12:13;4.57;;;3.17;;
20287;SDS011;10303;51.960;8.372;2023-08-01T07:14:39;5.73;;;3.30;;
20287;SDS011;10303;51.960;8.372;2023-08-01T07:17:05;6.87;;;3.83;;
20287;SDS011;10303;51.960;8.372;2023-08-01T07:19:31;3.53;;;3.23;;
20287;SDS011;10303;51.960;8.372;2023-08-01T07:21:57;8.20;;;3.50;;
20287;SDS011;10303;51.960;8.372;2023-08-01T07:24:23;9.50;;;3.87;;
20287;SDS011;10303;51.960;8.372;2023-08-01T07:26:49;4.40;;;3.23;;
20287;SDS011;10303;51.960;8.372;2023-08-01T07:29:15;4.30;;;3.50;;
20287;SDS011;10303;51.960;8.372;2023-08-01T07:31:42;5.60;;;3.30;;
20287;SDS011;10303;51.960;8.372;2023-08-01T07:34:08;6.93;;;3.88;;
20287;SDS011;10303;51.960;8.372;2023-08-01T07:36:34;4.90;;;3.00;;
20287;SDS011;10303;51.960;8.372;2023-08-01T07:39:00;3.80;;;2.28;;
20287;SDS011;10303;51.960;8.372;2023-08-01T07:41:26;4.63;;;2.90;;
20287;SDS011;10303;51.960;8.372;2023-08-01T07:43:52;7.65;;;2.83;;
20287;SDS011;10303;51.960;8.372;2023-08-01T07:46:18;8.68;;;3.22;;
20287;SDS011;10303;51.960;8.372;2023-08-01T07:48:44;7.27;;;3.70;;
20287;SDS011;10303;51.960;8.372;2023-08-01T07:51:10;5.50;;;2.85;;
20287;SDS011;10303;51.960;8.372;2023-08-01T07:53:37;5.72;;;3.42;;
20287;SDS011;10303;51.960;8.372;2023-08-01T07:56:03;5.50;;;3.80;;
20287;SDS011;10303;51.960;8.372;2023-08-01T07:58:31;5.72;;;3.53;;
20287;SDS011;10303;51.960;8.372;2023-08-01T08:01:02;5.88;;;3.13;;
20287;SDS011;10303;51.960;8.372;2023-08-01T08:03:31;4.90;;;3.90;;
20287;SDS011;10303;51.960;8.372;2023-08-01T08:05:58;7.07;;;5.10;;
20287;SDS011;10303;51.960;8.372;2023-08-01T08:08:24;6.90;;;4.40;;
20287;SDS011;10303;51.960;8.372;2023-08-01T08:10:50;4.13;;;3.72;;
20287;SDS011;10303;51.960;8.372;2023-08-01T08:13:16;4.22;;;3.42;;
20287;SDS011;10303;51.960;8.372;2023-08-01T08:15:42;8.18;;;4.10;;
20287;SDS011;10303;51.960;8.372;2023-08-01T08:18:08;3.55;;;3.10;;
20287;SDS011;10303;51.960;8.372;2023-08-01T08:20:40;3.53;;;3.20;;
20287;SDS011;10303;51.960;8.372;2023-08-01T08:23:09;3.00;;;2.70;;
20287;SDS011;10303;51.960;8.372;2023-08-01T08:25:36;3.05;;;2.70;;
20287;SDS011;10303;51.960;8.372;2023-08-01T08:28:02;3.75;;;2.00;;
20287;SDS011;10303;51.960;8.372;2023-08-01T08:30:28;5.13;;;3.63;;
20287;SDS011;10303;51.960;8.372;2023-08-01T08:32:56;8.18;;;4.13;;
20287;SDS011;10303;51.960;8.372;2023-08-01T08:35:25;4.90;;;4.28;;
20287;SDS011;10303;51.960;8.372;2023-08-01T08:37:51;5.93;;;4.05;;
20287;SDS011;10303;51.960;8.372;2023-08-01T08:40:17;3.40;;;3.20;;
20287;SDS011;10303;51.960;8.372;2023-08-01T08:42:43;4.05;;;3.40;;
20287;SDS011;10303;51.960;8.372;2023-08-01T08:45:11;4.05;;;3.30;;
20287;SDS011;10303;51.960;8.372;2023-08-01T08:47:44;5.97;;;3.70;;
20287;SDS011;10303;51.960;8.372;2023-08-01T08:50:18;3.65;;;3.10;;
20287;SDS011;10303;51.960;8.372;2023-08-01T08:52:45;5.90;;;3.50;;
20287;SDS011;10303;51.960;8.372;2023-08-01T08:55:12;4.50;;;3.30;;
20287;SDS011;10303;51.960;8.372;2023-08-01T08:57:38;4.35;;;3.10;;
20287;SDS011;10303;51.960;8.372;2023-08-01T09:00:05;2.45;;;2.25;;
20287;SDS011;10303;51.960;8.372;2023-08-01T09:02:32;2.75;;;2.50;;
20287;SDS011;10303;51.960;8.372;2023-08-01T09:04:58;5.80;;;2.90;;
20287;SDS011;10303;51.960;8.372;2023-08-01T09:07:25;4.43;;;4.03;;
20287;SDS011;10303;51.960;8.372;2023-08-01T09:09:58;4.65;;;2.22;;
20287;SDS011;10303;51.960;8.372;2023-08-01T09:12:24;4.28;;;2.90;;
20287;SDS011;10303;51.960;8.372;2023-08-01T09:14:51;3.55;;;2.97;;
20287;SDS011;10303;51.960;8.372;2023-08-01T09:17:22;4.25;;;3.10;;
20287;SDS011;10303;51.960;8.372;2023-08-01T09:19:48;4.22;;;3.83;;
20287;SDS011;10303;51.960;8.372;2023-08-01T09:22:20;4.93;;;4.32;;
20287;SDS011;10303;51.960;8.372;2023-08-01T09:24:52;7.20;;;3.95;;
20287;SDS011;10303;51.960;8.372;2023-08-01T09:27:20;8.90;;;5.13;;
20287;SDS011;10303;51.960;8.372;2023-08-01T09:29:49;8.85;;;4.60;;
20287;SDS011;10303;51.960;8.372;2023-08-01T09:32:15;4.45;;;3.55;;
20287;SDS011;10303;51.960;8.372;2023-08-01T09:34:41;4.30;;;2.83;;
20287;SDS011;10303;51.960;8.372;2023-08-01T09:37:08;4.50;;;3.45;;
20287;SDS011;10303;51.960;8.372;2023-08-01T09:39:34;3.63;;;3.10;;
20287;SDS011;10303;51.960;8.372;2023-08-01T09:42:01;5.28;;;4.15;;
20287;SDS011;10303;51.960;8.372;2023-08-01T09:44:28;6.13;;;4.43;;
20287;SDS011;10303;51.960;8.372;2023-08-01T09:46:56;12.18;;;5.43;;
20287;SDS011;10303;51.960;8.372;2023-08-01T09:49:30;4.38;;;3.78;;
20287;SDS011;10303;51.960;8.372;2023-08-01T09:51:57;3.38;;;3.13;;
20287;SDS011;10303;51.960;8.372;2023-08-01T09:54:24;6.15;;;4.55;;
20287;SDS011;10303;51.960;8.372;2023-08-01T09:56:51;5.07;;;3.58;;
20287;SDS011;10303;51.960;8.372;2023-08-01T09:59:22;4.43;;;3.78;;
20287;SDS011;10303;51.960;8.372;2023-08-01T10:01:51;4.78;;;4.38;;
20287;SDS011;10303;51.960;8.372;2023-08-01T10:04:20;7.28;;;4.65;;
20287;SDS011;10303;51.960;8.372;2023-08-01T10:06:59;3.60;;;3.05;;
20287;SDS011;10303;51.960;8.372;2023-08-01T10:09:31;3.92;;;3.30;;
20287;SDS011;10303;51.960;8.372;2023-08-01T10:12:03;5.00;;;3.25;;
20287;SDS011;10303;51.960;8.372;2023-08-01T10:14:35;4.82;;;3.67;;
20287;SDS011;10303;51.960;8.372;2023-08-01T10:17:01;6.25;;;3.10;;
20287;SDS011;10303;51.960;8.372;2023-08-01T10:19:29;4.10;;;3.28;;
20287;SDS011;10303;51.960;8.372;2023-08-01T10:22:00;5.45;;;3.65;;
20287;SDS011;10303;51.960;8.372;2023-08-01T10:24:28;7.15;;;3.20;;
20287;SDS011;10303;51.960;8.372;2023-08-01T10:26:56;7.28;;;3.50;;
20287;SDS011;10303;51.960;8.372;2023-08-01T10:29:22;5.85;;;2.88;;
20287;SDS011;10303;51.960;8.372;2023-08-01T10:32:01;3.00;;;2.80;;
20287;SDS011;10303;51.960;8.372;2023-08-01T10:34:27;3.38;;;3.08;;
20287;SDS011;10303;51.960;8.372;2023-08-01T10:36:53;5.97;;;2.92;;
20287;SDS011;10303;51.960;8.372;2023-08-01T10:39:22;4.57;;;2.50;;
20287;SDS011;10303;51.960;8.372;2023-08-01T10:44:45;3.72;;;2.55;;
20287;SDS011;10303;51.960;8.372;2023-08-01T10:47:11;3.22;;;2.53;;
20287;SDS011;10303;51.960;8.372;2023-08-01T10:49:41;3.08;;;2.50;;
20287;SDS011;10303;51.960;8.372;2023-08-01T10:52:22;3.45;;;2.25;;
20287;SDS011;10303;51.960;8.372;2023-08-01T10:55:02;3.60;;;2.35;;
20287;SDS011;10303;51.960;8.372;2023-08-01T10:57:31;2.55;;;2.20;;
20287;SDS011;10303;51.960;8.372;2023-08-01T11:00:14;4.15;;;2.40;;
20287;SDS011;10303;51.960;8.372;2023-08-01T11:02:48;2.33;;;1.58;;
20287;SDS011;10303;51.960;8.372;2023-08-01T11:05:18;2.22;;;1.60;;
20287;SDS011;10303;51.960;8.372;2023-08-01T11:07:53;2.25;;;1.95;;
20287;SDS011;10303;51.960;8.372;2023-08-01T11:10:25;3.85;;;1.92;;
20287;SDS011;10303;51.960;8.372;2023-08-01T11:12:53;2.30;;;1.40;;
20287;SDS011;10303;51.960;8.372;2023-08-01T11:15:19;4.70;;;2.50;;
20287;SDS011;10303;51.960;8.372;2023-08-01T11:17:47;2.35;;;1.50;;
20287;SDS011;10303;51.960;8.372;2023-08-01T11:20:15;1.35;;;1.00;;
20287;SDS011;10303;51.960;8.372;2023-08-01T11:25:41;2.58;;;1.92;;
20287;SDS011;10303;51.960;8.372;2023-08-01T11:28:14;2.80;;;1.45;;
20287;SDS011;10303;51.960;8.372;2023-08-01T11:30:42;3.67;;;1.77;;
20287;SDS011;10303;51.960;8.372;2023-08-01T11:33:20;2.03;;;1.83;;
20287;SDS011;10303;51.960;8.372;2023-08-01T11:35:52;1.73;;;1.40;;
20287;SDS011;10303;51.960;8.372;2023-08-01T11:38:25;1.80;;;1.70;;
20287;SDS011;10303;51.960;8.372;2023-08-01T11:40:58;2.65;;;2.05;;
20287;SDS011;10303;51.960;8.372;2023-08-01T11:43:26;2.05;;;1.40;;
20287;SDS011;10303;51.960;8.372;2023-08-01T11:46:02;3.63;;;1.95;;
20287;SDS011;10303;51.960;8.372;2023-08-01T11:48:28;1.95;;;1.48;;
20287;SDS011;10303;51.960;8.372;2023-08-01T11:50:57;3.22;;;2.58;;
20287;SDS011;10303;51.960;8.372;2023-08-01T11:53:24;10.00;;;2.42;;
20287;SDS011;10303;51.960;8.372;2023-08-01T11:55:51;2.10;;;1.92;;
20287;SDS011;10303;51.960;8.372;2023-08-01T11:58:27;3.38;;;1.75;;
20287;SDS011;10303;51.960;8.372;2023-08-01T12:01:11;3.00;;;1.92;;
20287;SDS011;10303;51.960;8.372;2023-08-01T12:03:42;4.00;;;2.13;;
20287;SDS011;10303;51.960;8.372;2023-08-01T12:06:12;3.72;;;2.13;;
20287;SDS011;10303;51.960;8.372;2023-08-01T12:08:44;2.30;;;2.10;;
20287;SDS011;10303;51.960;8.372;2023-08-01T12:11:25;2.88;;;2.00;;
20287;SDS011;10303;51.960;8.372;2023-08-01T12:14:06;5.75;;;2.17;;
20287;SDS011;10303;51.960;8.372;2023-08-01T12:16:38;2.55;;;1.48;;
20287;SDS011;10303;51.960;8.372;2023-08-01T12:19:10;2.22;;;2.00;;
20287;SDS011;10303;51.960;8.372;2023-08-01T12:21:42;2.70;;;1.80;;
20287;SDS011;10303;51.960;8.372;2023-08-01T12:24:09;1.83;;;1.55;;
20287;SDS011;10303;51.960;8.372;2023-08-01T12:26:35;5.38;;;1.45;;
20287;SDS011;10303;51.960;8.372;2023-08-01T12:29:02;4.40;;;1.70;;
20287;SDS011;10303;51.960;8.372;2023-08-01T12:31:28;1.50;;;1.30;;
20287;SDS011;10303;51.960;8.372;2023-08-01T12:33:54;3.20;;;2.15;;
20287;SDS011;10303;51.960;8.372;2023-08-01T12:36:20;3.22;;;2.10;;
20287;SDS011;10303;51.960;8.372;2023-08-01T12:38:47;3.03;;;1.95;;
20287;SDS011;10303;51.960;8.372;2023-08-01T12:41:13;3.40;;;2.05;;
20287;SDS011;10303;51.960;8.372;2023-08-01T12:43:39;3.47;;;1.73;;
20287;SDS011;10303;51.960;8.372;2023-08-01T12:46:05;4.40;;;2.17;;
20287;SDS011;10303;51.960;8.372;2023-08-01T12:48:31;4.57;;;2.20;;
20287;SDS011;10303;51.960;8.372;2023-08-01T12:50:57;1.67;;;1.58;;
20287;SDS011;10303;51.960;8.372;2023-08-01T12:53:23;2.85;;;1.40;;
20287;SDS011;10303;51.960;8.372;2023-08-01T12:55:52;2.08;;;1.02;;
20287;SDS011;10303;51.960;8.372;2023-08-01T12:58:18;3.25;;;1.88;;
20287;SDS011;10303;51.960;8.372;2023-08-01T13:00:45;1.27;;;0.90;;
20287;SDS011;10303;51.960;8.372;2023-08-01T13:03:11;2.13;;;1.20;;
20287;SDS011;10303;51.960;8.372;2023-08-01T13:05:38;1.02;;;0.80;;
20287;SDS011;10303;51.960;8.372;2023-08-01T13:08:06;1.15;;;0.80;;
20287;SDS011;10303;51.960;8.372;2023-08-01T13:10:34;1.98;;;1.45;;
20287;SDS011;10303;51.960;8.372;2023-08-01T13:13:02;1.77;;;1.35;;
20287;SDS011;10303;51.960;8.372;2023-08-01T13:15:29;1.83;;;0.98;;
20287;SDS011;10303;51.960;8.372;2023-08-01T13:17:55;0.85;;;0.80;;
20287;SDS011;10303;51.960;8.372;2023-08-01T13:20:21;1.50;;;1.40;;
20287;SDS011;10303;51.960;8.372;2023-08-01T13:22:51;1.77;;;1.30;;
20287;SDS011;10303;51.960;8.372;2023-08-01T13:25:18;1.88;;;1.10;;
20287;SDS011;10303;51.960;8.372;2023-08-01T13:27:44;1.73;;;1.00;;
20287;SDS011;10303;51.960;8.372;2023-08-01T13:30:10;4.53;;;1.25;;
20287;SDS011;10303;51.960;8.372;2023-08-01T13:32:39;2.17;;;1.15;;
20287;SDS011;10303;51.960;8.372;2023-08-01T13:35:06;1.67;;;1.08;;
20287;SDS011;10303;51.960;8.372;2023-08-01T13:37:33;2.50;;;1.92;;
20287;SDS011;10303;51.960;8.372;2023-08-01T13:40:00;1.48;;;0.98;;
20287;SDS011;10303;51.960;8.372;2023-08-01T13:42:26;1.48;;;1.17;;
20287;SDS011;10303;51.960;8.372;2023-08-01T13:44:53;3.95;;;1.58;;
20287;SDS011;10303;51.960;8.372;2023-08-01T13:47:20;1.33;;;1.00;;
20287;SDS011;10303;51.960;8.372;2023-08-01T13:49:49;3.85;;;1.33;;
20287;SDS011;10303;51.960;8.372;2023-08-01T13:52:15;2.92;;;1.42;;
20287;SDS011;10303;51.960;8.372;2023-08-01T13:54:41;4.68;;;1.10;;
20287;SDS011;10303;51.960;8.372;2023-08-01T13:57:07;1.25;;;0.90;;
20287;SDS011;10303;51.960;8.372;2023-08-01T13:59:33;3.05;;;0.93;;
20287;SDS011;10303;51.960;8.372;2023-08-01T14:01:59;1.83;;;1.10;;
20287;SDS011;10303;51.960;8.372;2023-08-01T14:04:24;0.82;;;0.80;;
20287;SDS011;10303;51.960;8.372;2023-08-01T14:06:51;1.40;;;0.95;;
20287;SDS011;10303;51.960;8.372;2023-08-01T14:09:17;1.52;;;0.68;;
20287;SDS011;10303;51.960;8.372;2023-08-01T14:11:43;1.17;;;0.77;;
20287;SDS011;10303;51.960;8.372;2023-08-01T14:14:09;1.58;;;0.98;;
20287;SDS011;10303;51.960;8.372;2023-08-01T14:16:35;1.23;;;1.00;;
20287;SDS011;10303;51.960;8.372;2023-08-01T14:19:01;2.40;;;1.10;;
20287;SDS011;10303;51.960;8.372;2023-08-01T14:21:29;1.25;;;1.00;;
20287;SDS011;10303;51.960;8.372;2023-08-01T14:23:55;2.00;;;1.15;;
20287;SDS011;10303;51.960;8.372;2023-08-01T14:26:21;3.45;;;1.42;;
20287;SDS011;10303;51.960;8.372;2023-08-01T14:28:47;7.00;;;1.67;;
20287;SDS011;10303;51.960;8.372;2023-08-01T14:31:13;1.75;;;1.60;;
20287;SDS011;10303;51.960;8.372;2023-08-01T14:33:39;3.75;;;1.30;;
20287;SDS011;10303;51.960;8.372;2023-08-01T14:36:09;2.83;;;1.48;;
20287;SDS011;10303;51.960;8.372;2023-08-01T14:38:38;2.55;;;1.00;;
20287;SDS011;10303;51.960;8.372;2023-08-01T14:41:04;1.75;;;1.13;;
20287;SDS011;10303;51.960;8.372;2023-08-01T14:43:31;1.42;;;0.90;;
20287;SDS011;10303;51.960;8.372;2023-08-01T14:45:57;6.63;;;1.60;;
20287;SDS011;10303;51.960;8.372;2023-08-01T14:48:23;0.93;;;0.90;;
20287;SDS011;10303;51.960;8.372;2023-08-01T14:50:49;1.00;;;0.95;;
20287;SDS011;10303;51.960;8.372;2023-08-01T14:53:14;3.63;;;0.93;;